Home > Products > Valid Products > MTR

000
SAUS46 KMFR 280357
MTRSXT
METAR KSXT 280356Z AUTO 00000KT 10SM SCT005 BKN010 OVC014 07/06
A3020 RMK AO2 CIG 008V012 SLP209 T00670056





000
SAUS46 KMFR 280355
MTRSXT
SPECI KSXT 280354Z AUTO VRB04KT 10SM SCT005 OVC014 07/06 A3019 RMK
AO2





000
SAUS46 KMFR 280328
MTRSXT
SPECI KSXT 280327Z AUTO VRB05KT 10SM BKN010 BKN015 OVC043 07/06
A3017 RMK AO2 CIG 004V012 T00670056





000
SAUS46 KMFR 280328
MTRSXT
SPECI KSXT 280327Z AUTO VRB05KT 10SM BKN010 BKN015 OVC043 07/06
A3017 RMK AO2 CIG 004V012 T00670056





000
SAUS46 KMFR 280257
MTRSXT
METAR KSXT 280256Z AUTO VRB06KT 10SM FEW016 BKN023 BKN033 07/05
A3016 RMK AO2 SLP198 T00720050 52011





000
SAUS46 KMFR 280257
MTRSXT
METAR KSXT 280256Z AUTO VRB06KT 10SM FEW016 BKN023 BKN033 07/05
A3016 RMK AO2 SLP198 T00720050 52011





000
SAUS46 KMFR 280210
MTRSXT
SPECI KSXT 280209Z AUTO VRB06G19KT 10SM BKN024 09/04 A3015 RMK AO2
T00890044





000
SAUS46 KMFR 280210
MTRSXT
SPECI KSXT 280209Z AUTO VRB06G19KT 10SM BKN024 09/04 A3015 RMK AO2
T00890044





000
SAUS46 KMFR 280157
MTRSXT
METAR KSXT 280156Z AUTO 22010G20KT 10SM FEW026 09/04 A3015 RMK AO2
SLP193 T00890039





000
SAUS46 KMFR 280157
MTRSXT
METAR KSXT 280156Z AUTO 22010G20KT 10SM FEW026 09/04 A3015 RMK AO2
SLP193 T00890039





000
SAUS46 KMFR 280057
MTRSXT
METAR KSXT 280056Z AUTO 10SM CLR 13/02 A3013 RMK AO2 SLP178
T01280017





000
SAUS46 KMFR 272357
MTRSXT
METAR KSXT 272356Z AUTO VRB04KT 10SM FEW070 13/01 A3012 RMK AO2
SLP175 T01280011 10183 20128 55005





000
SAUS46 KMFR 272357
MTRSXT
METAR KSXT 272356Z AUTO VRB04KT 10SM FEW070 13/01 A3012 RMK AO2
SLP175 T01280011 10183 20128 55005





000
SAUS46 KMFR 272257
MTRSXT
METAR KSXT 272256Z AUTO VRB05KT 10SM FEW055 18/03 A3012 RMK AO2
SLP164 T01780033





000
SAUS46 KMFR 272257
MTRSXT
METAR KSXT 272256Z AUTO VRB05KT 10SM FEW055 18/03 A3012 RMK AO2
SLP164 T01780033





000
SAUS46 KMFR 272157
MTRSXT
METAR KSXT 272156Z AUTO 19006G19KT 10SM BKN050 16/02 A3013 RMK AO2
SLP170 T01560022





000
SAUS46 KMFR 272057
MTRSXT
METAR KSXT 272056Z AUTO VRB05KT 10SM CLR 17/09 A3014 RMK AO2 SLP171
T01720089 58004





000
SAUS46 KMFR 271957
MTRSXT
METAR KSXT 271956Z AUTO VRB03KT 10SM CLR 17/08 A3015 RMK AO2 SLP173
T01670083





000
SAUS46 KMFR 271857
MTRSXT
METAR KSXT 271856Z AUTO VRB05KT 10SM CLR 15/07 A3015 RMK AO2 SLP180
T01500072





000
SAUS46 KMFR 271857
MTRSXT
METAR KSXT 271856Z AUTO VRB05KT 10SM CLR 15/07 A3015 RMK AO2 SLP180
T01500072





000
SAUS46 KMFR 271757
MTRSXT
METAR KSXT 271756Z AUTO VRB04KT 10SM CLR 16/06 A3015 RMK AO2 SLP175
T01560061 10161 20111 53008





000
SAUS46 KMFR 271757
MTRSXT
METAR KSXT 271756Z AUTO VRB04KT 10SM CLR 16/06 A3015 RMK AO2 SLP175
T01560061 10161 20111 53008





000
SAUS46 KMFR 271657
MTRSXT
METAR KSXT 271656Z AUTO 17008KT 10SM CLR 15/07 A3015 RMK AO2 SLP175
T01500072





000
SAUS46 KMFR 271657
MTRSXT
METAR KSXT 271656Z AUTO 17008KT 10SM CLR 15/07 A3015 RMK AO2 SLP175
T01500072





000
SAUS46 KMFR 271600
MTRMHS
METAR KMHS 271556Z AUTO 00000KT 10SM CLR 11/05 A3018 RMK AO2 SLP225
T01110050





000
SAUS46 KMFR 271557
MTRSXT
METAR KSXT 271556Z AUTO 17008KT 10SM CLR 14/07 A3013 RMK AO2 SLP172
T01390072





000
SAUS46 KMFR 271457
MTRSXT
METAR KSXT 271456Z AUTO 18009KT 10SM CLR 13/07 A3013 RMK AO2 SLP168
T01280067 55001





000
SAUS46 KMFR 271457
MTRSXT
METAR KSXT 271456Z AUTO 18009KT 10SM CLR 13/07 A3013 RMK AO2 SLP168
T01280067 55001





000
SAUS46 KMFR 271357
MTRSXT
METAR KSXT 271356Z AUTO 18010KT 10SM CLR 12/07 A3012 RMK AO2 SLP169
T01170067





000
SAUS46 KMFR 271357
MTRSXT
METAR KSXT 271356Z AUTO 18010KT 10SM CLR 12/07 A3012 RMK AO2 SLP169
T01170067





000
SAUS46 KMFR 271257
MTRSXT
METAR KSXT 271256Z AUTO 17009KT 10SM CLR 12/07 A3012 RMK AO2 SLP167
T01220067





000
SAUS46 KMFR 271257
MTRSXT
METAR KSXT 271256Z AUTO 17009KT 10SM CLR 12/07 A3012 RMK AO2 SLP167
T01220067





000
SAUS46 KMFR 271157
MTRSXT
METAR KSXT 271156Z AUTO 18009KT 10SM CLR 13/07 A3013 RMK AO2 SLP167
T01280067 10150 20122 58011





000
SAUS46 KMFR 271157
MTRSXT
METAR KSXT 271156Z AUTO 18009KT 10SM CLR 13/07 A3013 RMK AO2 SLP167
T01280067 10150 20122 58011





000
SAUS46 KMFR 271057
MTRSXT
METAR KSXT 271056Z AUTO 18009KT 10SM CLR 13/07 A3014 RMK AO2 SLP170
T01280072





000
SAUS46 KMFR 271057
MTRSXT
METAR KSXT 271056Z AUTO 18009KT 10SM CLR 13/07 A3014 RMK AO2 SLP170
T01280072





000
SAUS46 KMFR 270957
MTRSXT
METAR KSXT 270956Z AUTO 20010KT 10SM CLR 13/05 A3016 RMK AO2 SLP175
T01330050





000
SAUS46 KMFR 270857
MTRSXT
METAR KSXT 270856Z AUTO 20008KT 10SM CLR 13/06 A3017 RMK AO2 SLP180
T01330061 58008





000
SAUS46 KMFR 270857
MTRSXT
METAR KSXT 270856Z AUTO 20008KT 10SM CLR 13/06 A3017 RMK AO2 SLP180
T01330061 58008





000
SAUS46 KMFR 270757
MTRSXT
METAR KSXT 270756Z AUTO 19008KT 10SM CLR 14/07 A3017 RMK AO2 SLP183
T01390067 401890089





000
SAUS46 KMFR 270757
MTRSXT
METAR KSXT 270756Z AUTO 19008KT 10SM CLR 14/07 A3017 RMK AO2 SLP183
T01390067 401890089





000
SAUS46 KMFR 270657
MTRSXT
METAR KSXT 270656Z AUTO 20007KT 10SM CLR 14/08 A3018 RMK AO2 SLP188
T01390083





000
SAUS46 KMFR 270657
MTRSXT
METAR KSXT 270656Z AUTO 20007KT 10SM CLR 14/08 A3018 RMK AO2 SLP188
T01390083





000
SAUS46 KMFR 270557
MTRSXT
METAR KSXT 270556Z AUTO 18004KT 10SM CLR 15/07 A3019 RMK AO2 SLP189
T01500072 10189 20139 50003





000
SAUS46 KMFR 270557
MTRSXT
METAR KSXT 270556Z AUTO 18004KT 10SM CLR 15/07 A3019 RMK AO2 SLP189
T01500072 10189 20139 50003





000
SAUS46 KMFR 270503
MTRMHS
METAR KMHS 270456Z AUTO 00000KT 10SM CLR 11/05 A3021 RMK AO2 SLP235
T01060050





000
SAUS46 KMFR 270503
MTRMHS
METAR KMHS 270456Z AUTO 00000KT 10SM CLR 11/05 A3021 RMK AO2 SLP235
T01060050





000
SAUS46 KMFR 270457
MTRSXT
METAR KSXT 270456Z AUTO 00000KT 10SM CLR 15/07 A3019 RMK AO2 SLP194
T01500072





000
SAUS46 KMFR 270457
MTRSXT
METAR KSXT 270456Z AUTO 00000KT 10SM CLR 15/07 A3019 RMK AO2 SLP194
T01500072





000
SAUS46 KMFR 270357
MTRSXT
METAR KSXT 270356Z AUTO 33004KT 10SM CLR 15/08 A3019 RMK AO2 SLP198
T01500078





000
SAUS46 KMFR 270303
MTRMHS
METAR KMHS 270256Z AUTO 00000KT 10SM CLR 17/04 A3018 RMK AO2 SLP231
T01670044 53002





000
SAUS46 KMFR 270303
MTRMHS
METAR KMHS 270256Z AUTO 00000KT 10SM CLR 17/04 A3018 RMK AO2 SLP231
T01670044 53002





000
SAUS46 KMFR 270257
MTRSXT
METAR KSXT 270256Z AUTO 33003KT 10SM CLR 17/02 A3018 RMK AO2 SLP192
T01720017 56006





000
SAUS46 KMFR 270257
MTRSXT
METAR KSXT 270256Z AUTO 33003KT 10SM CLR 17/02 A3018 RMK AO2 SLP192
T01720017 56006





000
SAUS46 KMFR 270157
MTRSXT
METAR KSXT 270156Z AUTO 00000KT 10SM CLR 17/07 A3019 RMK AO2 SLP195
T01720072





000
SAUS46 KMFR 270057
MTRSXT
METAR KSXT 270056Z AUTO 00000KT 10SM CLR 18/07 A3019 RMK AO2 SLP194
T01780067





000
SAUS46 KMFR 270057
MTRSXT
METAR KSXT 270056Z AUTO 00000KT 10SM CLR 18/07 A3019 RMK AO2 SLP194
T01780067





000
SAUS46 KMFR 262357
MTRSXT
METAR KSXT 262356Z AUTO 32004KT 10SM CLR 18/06 A3020 RMK AO2 SLP199
T01780061 10189 20150 56012





000
SAUS46 KMFR 262357
MTRSXT
METAR KSXT 262356Z AUTO 32004KT 10SM CLR 18/06 A3020 RMK AO2 SLP199
T01780061 10189 20150 56012





000
SAUS46 KMFR 262257
MTRSXT
METAR KSXT 262256Z AUTO 00000KT 10SM CLR 19/08 A3021 RMK AO2 SLP201
T01890083





000
SAUS46 KMFR 262257
MTRSXT
METAR KSXT 262256Z AUTO 00000KT 10SM CLR 19/08 A3021 RMK AO2 SLP201
T01890083





000
SAUS46 KMFR 262157
MTRSXT
METAR KSXT 262156Z AUTO 00000KT 10SM CLR 18/09 A3023 RMK AO2 SLP207
T01830094





000
SAUS46 KMFR 262057
MTRSXT
METAR KSXT 262056Z AUTO VRB03KT 10SM CLR 18/07 A3024 RMK AO2 SLP214
T01780072 58006





000
SAUS46 KMFR 262057
MTRSXT
METAR KSXT 262056Z AUTO VRB03KT 10SM CLR 18/07 A3024 RMK AO2 SLP214
T01780072 58006





000
SAUS46 KMFR 261957
MTRSXT
METAR KSXT 261956Z AUTO VRB05KT 10SM CLR 17/08 A3025 RMK AO2 SLP217
T01670078





000
SAUS46 KMFR 261857
MTRSXT
METAR KSXT 261856Z AUTO 12008KT 10SM CLR 16/07 A3026 RMK AO2 SLP219
T01560072





000
SAUS46 KMFR 261857
MTRSXT
METAR KSXT 261856Z AUTO 12008KT 10SM CLR 16/07 A3026 RMK AO2 SLP219
T01560072





000
SAUS46 KMFR 261804 COR
MTRMHS
METAR KMHS 261756Z AUTO 00000KT 10SM CLR 17/06 A3028 RMK AO2 SLP262
T01670056 10167 20022 58004





000
SAUS46 KMFR 261804 COR
MTRMHS
METAR KMHS 261756Z AUTO 00000KT 10SM CLR 17/06 A3028 RMK AO2 SLP262
T01670056 10167 20022 58004





000
SAUS46 KMFR 261757
MTRSXT
METAR KSXT 261756Z AUTO 12009KT 10SM CLR 16/07 A3026 RMK AO2 SLP220
T01560067 10156 20089 53002





000
SAUS46 KMFR 261757
MTRSXT
METAR KSXT 261756Z AUTO 12009KT 10SM CLR 16/07 A3026 RMK AO2 SLP220
T01560067 10156 20089 53002





000
SAUS46 KMFR 261657
MTRSXT
METAR KSXT 261656Z AUTO 12011KT 10SM CLR 13/07 A3025 RMK AO2 SLP223
T01330067





000
SAUS46 KMFR 261657
MTRSXT
METAR KSXT 261656Z AUTO 12011KT 10SM CLR 13/07 A3025 RMK AO2 SLP223
T01330067





000
SAUS46 KMFR 261604 COR
MTRMHS
METAR KMHS 261556Z AUTO 00000KT 10SM CLR 11/07 A3029 RMK AO2 SLP269
T01110067





000
SAUS46 KMFR 261604 COR
MTRMHS
METAR KMHS 261556Z AUTO 00000KT 10SM CLR 11/07 A3029 RMK AO2 SLP269
T01110067





000
SAUS46 KMFR 261557
MTRSXT
METAR KSXT 261556Z AUTO 12015G22KT 10SM CLR 11/06 A3025 RMK AO2
SLP222 T01110056





000
SAUS46 KMFR 261457
MTRSXT
METAR KSXT 261456Z AUTO 12010KT 10SM CLR 10/05 A3025 RMK AO2 SLP227
T01000050 55003





000
SAUS46 KMFR 261357
MTRSXT
METAR KSXT 261356Z AUTO 11012KT 10SM CLR 09/05 A3025 RMK AO2 SLP226
T00940050





000
SAUS46 KMFR 261257
MTRSXT
METAR KSXT 261256Z AUTO 12011KT 10SM CLR 09/05 A3026 RMK AO2 SLP228
T00940050





000
SAUS46 KMFR 261257
MTRSXT
METAR KSXT 261256Z AUTO 12011KT 10SM CLR 09/05 A3026 RMK AO2 SLP228
T00940050





000
SAUS46 KMFR 261157
MTRSXT
METAR KSXT 261156Z AUTO 11011KT 10SM CLR 09/04 A3026 RMK AO2 SLP227
T00940044 10111 20089 58009





000
SAUS46 KMFR 261157
MTRSXT
METAR KSXT 261156Z AUTO 11011KT 10SM CLR 09/04 A3026 RMK AO2 SLP227
T00940044 10111 20089 58009





000
SAUS46 KMFR 261057
MTRSXT
METAR KSXT 261056Z AUTO 10004KT 10SM CLR 09/04 A3027 RMK AO2 SLP231
T00940039





000
SAUS46 KMFR 261057
MTRSXT
METAR KSXT 261056Z AUTO 10004KT 10SM CLR 09/04 A3027 RMK AO2 SLP231
T00940039





000
SAUS46 KMFR 260957
MTRSXT
METAR KSXT 260956Z AUTO 11010KT 10SM CLR 09/04 A3028 RMK AO2 SLP237
T00940039





000
SAUS46 KMFR 260857
MTRSXT
METAR KSXT 260856Z AUTO 12009KT 10SM CLR 09/05 A3029 RMK AO2 SLP240
T00890050 58010





000
SAUS46 KMFR 260757
MTRSXT
METAR KSXT 260756Z AUTO 12007KT 10SM CLR 10/04 A3030 RMK AO2 SLP245
T01000044 401390039





000
SAUS46 KMFR 260657
MTRSXT
METAR KSXT 260656Z AUTO 12005KT 10SM CLR 11/04 A3032 RMK AO2 SLP254
T01060044





000
SAUS46 KMFR 260557
MTRSXT
METAR KSXT 260556Z AUTO 11005KT 10SM CLR 11/04 A3033 RMK AO2 SLP256
T01060044 10133 20106 50002





000
SAUS46 KMFR 260557
MTRSXT
METAR KSXT 260556Z AUTO 11005KT 10SM CLR 11/04 A3033 RMK AO2 SLP256
T01060044 10133 20106 50002





000
SAUS46 KMFR 260457
MTRSXT
METAR KSXT 260456Z AUTO 13003KT 10SM CLR 11/04 A3033 RMK AO2 SLP261
T01110039





000
SAUS46 KMFR 260400
MTRMHS
METAR KMHS 260356Z AUTO 00000KT 10SM CLR 10/05 A3031 RMK AO2 SLP282
T01000050





000
SAUS46 KMFR 260400
MTRMHS
METAR KMHS 260356Z AUTO 00000KT 10SM CLR 10/05 A3031 RMK AO2 SLP282
T01000050





000
SAUS46 KMFR 260357
MTRSXT
METAR KSXT 260356Z AUTO 00000KT 10SM CLR 12/03 A3033 RMK AO2 SLP264
T01170028





000
SAUS46 KMFR 260257
MTRSXT
METAR KSXT 260256Z AUTO 00000KT 10SM CLR 12/03 A3032 RMK AO2 SLP261
T01170028 56003





000
SAUS46 KMFR 260257
MTRSXT
METAR KSXT 260256Z AUTO 00000KT 10SM CLR 12/03 A3032 RMK AO2 SLP261
T01170028 56003





000
SAUS46 KMFR 260157
MTRSXT
METAR KSXT 260156Z AUTO 00000KT 10SM CLR 12/04 A3032 RMK AO2 SLP263
T01170039





000
SAUS46 KMFR 260057
MTRSXT
METAR KSXT 260056Z AUTO 00000KT 10SM CLR 12/04 A3032 RMK AO2 SLP262
T01220044





000
SAUS46 KMFR 252357
MTRSXT
METAR KSXT 252356Z AUTO 00000KT 10SM CLR 13/04 A3033 RMK AO2 SLP261
T01330039 10139 20083 56004





000
SAUS46 KMFR 252357
MTRSXT
METAR KSXT 252356Z AUTO 00000KT 10SM CLR 13/04 A3033 RMK AO2 SLP261
T01330039 10139 20083 56004





000
SAUS46 KMFR 252257
MTRSXT
METAR KSXT 252256Z AUTO 00000KT 10SM CLR 13/06 A3033 RMK AO2 SLP262
T01330061





000
SAUS46 KMFR 252257
MTRSXT
METAR KSXT 252256Z AUTO 00000KT 10SM CLR 13/06 A3033 RMK AO2 SLP262
T01330061





000
SAUS46 KMFR 252157
MTRSXT
METAR KSXT 252156Z AUTO 00000KT 10SM FEW022 13/07 A3034 RMK AO2
SLP264 T01280072





000
SAUS46 KMFR 252100
MTRSXT
METAR KSXT 252056Z AUTO 00000KT 10SM CLR 13/07 A3034 RMK AO2 SLP265
T01280072 50002





000
SAUS46 KMFR 251957
MTRSXT
METAR KSXT 251956Z AUTO VRB04KT 10SM FEW012 12/07 A3034 RMK AO2
SLP270 T01170072 PWINO $





000
SAUS46 KMFR 251957
MTRSXT
METAR KSXT 251956Z AUTO VRB04KT 10SM FEW012 12/07 A3034 RMK AO2
SLP270 T01170072 PWINO $





000
SAUS46 KMFR 251900
MTRMHS
METAR KMHS 251856Z AUTO 31005KT 10SM CLR 13/06 A3035 RMK AO2 SLP291
T01280056





000
SAUS46 KMFR 251857
MTRSXT
METAR KSXT 251856Z AUTO VRB05KT 10SM CLR 09/07 A3034 RMK AO2 SLP273
T00940067 PWINO $





000
SAUS46 KMFR 251857
MTRSXT
METAR KSXT 251856Z AUTO VRB05KT 10SM CLR 09/07 A3034 RMK AO2 SLP273
T00940067 PWINO $





000
SAUS46 KMFR 251819
MTRSXT
SPECI KSXT 251818Z AUTO 12005KT 10SM FEW006 09/07 A3034 RMK AO2
T00890067 PWINO $





000
SAUS46 KMFR 251819
MTRSXT
SPECI KSXT 251818Z AUTO 12005KT 10SM FEW006 09/07 A3034 RMK AO2
T00890067 PWINO $





000
SAUS46 KMFR 251757
MTRSXT
METAR KSXT 251756Z AUTO 12007KT 10SM CLR 09/08 A3033 RMK AO2 SLP268
T00940078 10094 20039 53011 PWINO $





000
SAUS46 KMFR 251757
MTRSXT
METAR KSXT 251756Z AUTO 12007KT 10SM CLR 09/08 A3033 RMK AO2 SLP268
T00940078 10094 20039 53011 PWINO $





000
SAUS46 KMFR 251657
MTRSXT
METAR KSXT 251656Z AUTO 12009KT 10SM FEW001 OVC070 06/06 A3032 RMK
AO2 SLP271 T00610061





000
SAUS46 KMFR 251657
MTRSXT
METAR KSXT 251656Z AUTO 12009KT 10SM FEW001 OVC070 06/06 A3032 RMK
AO2 SLP271 T00610061





000
SAUS46 KMFR 251642
MTRSXT
SPECI KSXT 251641Z AUTO 13008KT 3SM BR FEW001 OVC070 06/06 A3032 RMK
AO2 T00560056





000
SAUS46 KMFR 251627
MTRSXT
SPECI KSXT 251626Z AUTO 13009KT 1 1/2SM BR FEW001 OVC075 06/06 A3031
RMK AO2 VIS 3/4V4 T00560056





000
SAUS46 KMFR 251627
MTRSXT
SPECI KSXT 251626Z AUTO 13009KT 1 1/2SM BR FEW001 OVC075 06/06 A3031
RMK AO2 VIS 3/4V4 T00560056





000
SAUS46 KMFR 251618
MTRSXT
SPECI KSXT 251617Z AUTO 13009KT 3/4SM BR FEW001 OVC075 05/05 A3031
RMK AO2 VIS 1/4V2 1/2 T00500050





000
SAUS46 KMFR 251618
MTRSXT
SPECI KSXT 251617Z AUTO 13009KT 3/4SM BR FEW001 OVC075 05/05 A3031
RMK AO2 VIS 1/4V2 1/2 T00500050





000
SAUS46 KMFR 251613
MTRSXT
SPECI KSXT 251612Z AUTO 13011KT 1 3/4SM BR FEW001 OVC075 06/05 A3031
RMK AO2 VIS 3/4V5 T00560050





000
SAUS46 KMFR 251613
MTRSXT
SPECI KSXT 251612Z AUTO 13011KT 1 3/4SM BR FEW001 OVC075 06/05 A3031
RMK AO2 VIS 3/4V5 T00560050





000
SAUS46 KMFR 251610
MTRSXT
SPECI KSXT 251609Z AUTO 13010KT 3SM BR FEW001 OVC075 05/05 A3031 RMK
AO2 T00500050





000
SAUS46 KMFR 251557
MTRSXT
METAR KSXT 251556Z AUTO 13009KT 1 3/4SM BR FEW001 OVC080 05/05 A3031
RMK AO2 SLP270 T00500050





000
SAUS46 KMFR 251557
MTRSXT
METAR KSXT 251556Z AUTO 13009KT 1 3/4SM BR FEW001 OVC080 05/05 A3031
RMK AO2 SLP270 T00500050





000
SAUS46 KMFR 251552
MTRSXT
SPECI KSXT 251551Z AUTO 14009KT 2SM BR FEW001 OVC080 05/05 A3031 RMK
AO2 VIS 1 1/2V3





000
SAUS46 KMFR 251549
MTRSXT
SPECI KSXT 251547Z AUTO 14009KT 1SM BR FEW001 OVC080 05/05 A3031 RMK
AO2 T00500050





000
SAUS46 KMFR 251518
MTRSXT
SPECI KSXT 251516Z AUTO 14008KT 1/4SM FG SCT001 OVC085 04/04 A3030
RMK AO2 T00440044





000
SAUS46 KMFR 251506
MTRSXT
SPECI KSXT 251505Z AUTO 14010KT M1/4SM FG BKN001 OVC090 04/04 A3030
RMK AO2 T00440044





000
SAUS46 KMFR 251506
MTRSXT
SPECI KSXT 251505Z AUTO 14010KT M1/4SM FG BKN001 OVC090 04/04 A3030
RMK AO2 T00440044





000
SAUS46 KMFR 251457
MTRSXT
METAR KSXT 251456Z AUTO 15008KT M1/4SM FG SCT001 BKN090 04/04 A3030
RMK AO2 SLP267 T00440044 51007





000
SAUS46 KMFR 251445
MTRSXT
SPECI KSXT 251444Z AUTO 16008KT 1/4SM FG SCT001 SCT120 04/04 A3030
RMK AO2 T00390039





000
SAUS46 KMFR 251445
MTRSXT
SPECI KSXT 251444Z AUTO 16008KT 1/4SM FG SCT001 SCT120 04/04 A3030
RMK AO2 T00390039





000
SAUS46 KMFR 251440
MTRSXT
SPECI KSXT 251439Z AUTO 15008KT 1/2SM FG VV001 04/04 A3030 RMK AO2
VIS M1/4V5 T00390039





000
SAUS46 KMFR 251438
MTRSXT
SPECI KSXT 251437Z AUTO 15008KT 1 1/2SM BR FEW001 04/04 A3030 RMK
AO2 VIS 1/2V5 T00390039





000
SAUS46 KMFR 251357
MTRSXT
METAR KSXT 251356Z AUTO 17007KT 10SM CLR 04/04 A3029 RMK AO2 SLP266
T00390039





000
SAUS46 KMFR 251357
MTRSXT
METAR KSXT 251356Z AUTO 17007KT 10SM CLR 04/04 A3029 RMK AO2 SLP266
T00390039





000
SAUS46 KMFR 251257
MTRSXT
METAR KSXT 251256Z AUTO 19006KT 10SM CLR 04/04 A3029 RMK AO2 SLP261
T00440039





000
SAUS46 KMFR 251257
MTRSXT
METAR KSXT 251256Z AUTO 19006KT 10SM CLR 04/04 A3029 RMK AO2 SLP261
T00440039





000
SAUS46 KMFR 251250
MTRMHS
SPECI KMHS 251245Z AUTO 05003KT 10SM BKN013 01/00 A3031 RMK AO2
T00110000





000
SAUS46 KMFR 251250
MTRMHS
SPECI KMHS 251245Z AUTO 05003KT 10SM BKN013 01/00 A3031 RMK AO2
T00110000





000
SAUS46 KMFR 251157
MTRSXT
METAR KSXT 251156Z AUTO 17009KT 9SM FEW001 04/04 A3028 RMK AO2
SLP256 70009 T00440039 10056 20039 55000





000
SAUS46 KMFR 251157
MTRSXT
METAR KSXT 251156Z AUTO 17009KT 9SM FEW001 04/04 A3028 RMK AO2
SLP256 70009 T00440039 10056 20039 55000





000
SAUS46 KMFR 251132
MTRSXT
SPECI KSXT 251131Z AUTO 17009KT 5SM BR SCT001 04/04 A3027 RMK AO2
T00440039





000
SAUS46 KMFR 251132
MTRSXT
SPECI KSXT 251131Z AUTO 17009KT 5SM BR SCT001 04/04 A3027 RMK AO2
T00440039





000
SAUS46 KMFR 251118
MTRSXT
SPECI KSXT 251117Z AUTO 17009KT 3SM BR BKN001 04/04 A3027 RMK AO2
T00440044





000
SAUS46 KMFR 251118
MTRSXT
SPECI KSXT 251117Z AUTO 17009KT 3SM BR BKN001 04/04 A3027 RMK AO2
T00440044





000
SAUS46 KMFR 251108
MTRSXT
SPECI KSXT 251107Z AUTO 17009KT 2SM BR BKN001 04/04 A3027 RMK AO2
T00440044





000
SAUS46 KMFR 251108
MTRSXT
SPECI KSXT 251107Z AUTO 17009KT 2SM BR BKN001 04/04 A3027 RMK AO2
T00440044





000
SAUS46 KMFR 251057
MTRSXT
METAR KSXT 251056Z AUTO 17010KT 1SM BR VV001 04/04 A3027 RMK AO2 VIS
1/2V2 SLP254 T00440044





000
SAUS46 KMFR 251057
MTRSXT
METAR KSXT 251056Z AUTO 17010KT 1SM BR VV001 04/04 A3027 RMK AO2 VIS
1/2V2 SLP254 T00440044





000
SAUS46 KMFR 251054
MTRSXT
SPECI KSXT 251053Z AUTO 18010KT 3/4SM BR VV001 04/04 A3027 RMK AO2
VIS 1/4V2





000
SAUS46 KMFR 251054
MTRSXT
SPECI KSXT 251053Z AUTO 18010KT 3/4SM BR VV001 04/04 A3027 RMK AO2
VIS 1/4V2





000
SAUS46 KMFR 251045
MTRSXT
SPECI KSXT 251043Z AUTO 18011KT 1/4SM FG VV001 04/04 A3027 RMK AO2
T00440044





000
SAUS46 KMFR 251045
MTRSXT
SPECI KSXT 251043Z AUTO 18011KT 1/4SM FG VV001 04/04 A3027 RMK AO2
T00440044





000
SAUS46 KMFR 251037
MTRMHS
SPECI KMHS 251033Z AUTO 00000KT 6SM BR BKN001 02/01 A3031 RMK AO2
T00220006





000
SAUS46 KMFR 251023
MTRSXT
SPECI KSXT 251022Z AUTO 18012KT 1/2SM FG BKN001 OVC050 04/04 A3027
RMK AO2 T00440044





000
SAUS46 KMFR 251023
MTRSXT
SPECI KSXT 251022Z AUTO 18012KT 1/2SM FG BKN001 OVC050 04/04 A3027
RMK AO2 T00440044





000
SAUS46 KMFR 251003
MTRMHS
METAR KMHS 250956Z AUTO 00000KT 8SM CLR 02/01 A3031 RMK AO2 SLP288
T00220011





000
SAUS46 KMFR 251003
MTRMHS
METAR KMHS 250956Z AUTO 00000KT 8SM CLR 02/01 A3031 RMK AO2 SLP288
T00220011





000
SAUS46 KMFR 250957
MTRSXT
METAR KSXT 250956Z AUTO 18011KT 1/4SM FG BKN001 OVC050 04/04 A3028
RMK AO2 SLP259 T00440044





000
SAUS46 KMFR 250924
MTRSXT
SPECI KSXT 250923Z AUTO 18009KT 1/4SM FG VV001 05/05 A3029 RMK AO2
T00500050





000
SAUS46 KMFR 250924
MTRSXT
SPECI KSXT 250923Z AUTO 18009KT 1/4SM FG VV001 05/05 A3029 RMK AO2
T00500050





000
SAUS46 KMFR 250910
MTRSXT
SPECI KSXT 250909Z AUTO 20008KT 1/4SM FG VV002 05/05 A3029 RMK AO2
T00500050





000
SAUS46 KMFR 250857
MTRSXT
METAR KSXT 250856Z AUTO 19009KT 1/4SM FG VV001 05/05 A3028 RMK AO2
SLP262 T00500050 50001





000
SAUS46 KMFR 250819
MTRSXT
SPECI KSXT 250818Z AUTO 19011KT 1/4SM FG VV001 05/05 A3028 RMK AO2
T00500050





000
SAUS46 KMFR 250819
MTRSXT
SPECI KSXT 250818Z AUTO 19011KT 1/4SM FG VV001 05/05 A3028 RMK AO2
T00500050





000
SAUS46 KMFR 250757
MTRSXT
METAR KSXT 250756Z AUTO 18010KT 1/4SM FG VV002 05/05 A3028 RMK AO2
SLP264 T00500050 400670011





000
SAUS46 KMFR 250702
MTRMHS
METAR KMHS 250656Z AUTO 00000KT 6SM BR OVC015 06/04 A3032 RMK AO2
SLP289 T00560044





000
SAUS46 KMFR 250657
MTRSXT
METAR KSXT 250656Z AUTO 18008KT 1/4SM FG VV001 05/05 A3029 RMK AO2
SLP264 T00500050





000
SAUS46 KMFR 250657
MTRSXT
METAR KSXT 250656Z AUTO 18008KT 1/4SM FG VV001 05/05 A3029 RMK AO2
SLP264 T00500050





000
SAUS46 KMFR 250557
MTRSXT
METAR KSXT 250556Z AUTO 17010KT 1/4SM FG VV001 06/05 A3028 RMK AO2
SLP266 60001 T00560050 10067 20050 50006





000
SAUS46 KMFR 250557
MTRSXT
METAR KSXT 250556Z AUTO 17010KT 1/4SM FG VV001 06/05 A3028 RMK AO2
SLP266 60001 T00560050 10067 20050 50006





000
SAUS46 KMFR 250536
MTRMHS
SPECI KMHS 250531Z AUTO 00000KT 1 1/4SM BR FEW001 SCT013 06/04 A3030
RMK AO2 T00610044





000
SAUS46 KMFR 250536
MTRMHS
SPECI KMHS 250531Z AUTO 00000KT 1 1/4SM BR FEW001 SCT013 06/04 A3030
RMK AO2 T00610044





000
SAUS46 KMFR 250457
MTRSXT
METAR KSXT 250456Z AUTO 21008KT M1/4SM FG VV001 06/06 A3028 RMK AO2
SLP266 T00560056





000
SAUS46 KMFR 250457
MTRSXT
METAR KSXT 250456Z AUTO 21008KT M1/4SM FG VV001 06/06 A3028 RMK AO2
SLP266 T00560056





000
SAUS46 KMFR 250445
MTRSXT
SPECI KSXT 250444Z AUTO 19006KT M1/4SM FG VV001 06/06 A3028 RMK AO2
T00560056





    US Dept of Commerce
    National Oceanic and Atmospheric Administration
    National Weather Service
    1325 East West Highway
    Silver Spring, MD 20910
    Page Author: NWS Internet Services Team
Disclaimer
Information Quality
Credits
Glossary
Privacy Policy
Freedom of Information Act (FOIA)
About Us
Career Opportunities